Alexandria, LA (71301)

8:05 AM CDT on June 27, 2017 (GMT -0500)
Charles Park | | Change Station
Active Advisory: Flood Warning

Elev 72 ft 31.28 °N, 92.48 °W | Updated 5 minutes ago

Partly Cloudy
Partly Cloudy
77.9 °F
Feels Like 80 °F
N
0.0
Wind Variable Wind from East
Gusts 0.0 mph

Today
High -- | Low -- °F
--% Chance of Precip.
Yesterday
High -- | Low -- °F
Precip. -- in
Pressure 30.03 in
Visibility 9.0 miles
Clouds Clear
Heat Index 80 °F
Dew Point 75 °F
Humidity 92%
Rainfall 0.02 in
Snow Depth Not available.
6:07 AM 8:18 PM
Waxing Crescent, 16% visible
METAR KAEX 271253Z 00000KT 9SM CLR 24/22 A3002 RMK AO2 SLP169 T02390217
Pressure 30.03 in
Visibility 9.0 miles
Clouds Clear
Heat Index 80 °F
Dew Point 75 °F
Humidity 92%
Rainfall 0.02 in
Snow Depth Not available.
6:07 AM 8:18 PM
Waxing Crescent, 16% visible
METAR KAEX 271253Z 00000KT 9SM CLR 24/22 A3002 RMK AO2 SLP169 T02390217

Get Your Daily Forecast Email!

Thanks for signing up!

Be on the lookout for a verification email in your inbox.

You'll start receiving severe weather alerts in your inbox..

×

10-Day Weather Forecast

Almanac

Astronomy

Jun. 27, 2017 Rise Set
Actual Time
Civil Twilight
Nautical Twilight
Astronomical Twilight
Moon
Length of Visible Light
Length of Day
Tomorrow will be .
, % of the Moon is Illuminated

Today's Extremes

State Highs State Lows

Community

WunderPhotos

Category 6

Welcome to Category 6. This is the collective home for Weather Underground's featured writeups by Dr. Jeff Masters (right), Bob Henson (left), Chris Burt, and other regular contributors.

Nearby

Air Quality

  Air Quality AQ Index Pollutant
Not available.

Snow Depth

Station Depth Elevation

Earthquake Activity

City Distance Mag. Time & Date
Minimum magnitude displayed is 2.5.

Coastal Water Temperatures

Place Temperature

Stations

Nearby Weather Stations

Station Location Temp. Windchill Dew Point Humidity Wind Precip. Elev Updated Type
                   

Watches & Warnings

Flood Warning
Issued: 8:26 PM CDT Jun. 26, 2017 – National Weather Service

The Flood Warning continues for
the Calcasieu River near Glenmora.
* Until Wednesday evening... or until the warning is cancelled.
* At 7:45 PM Monday the stage was 12.7 feet.
* Minor flooding is occurring and minor flooding is forecast.
* Flood stage is 12.0 feet.
* Forecast... the river is foreast to fall below flood stage
Wednesday afternoon.
* Impact... at stages near 12.0 feet... when the river is falling and
the gauge reading is forecast to be near 12 feet, flooding of
forested areas near the river will occur.


Lat... Lon 3115 9275 3105 9265 3090 9262 3090 9269 3113 9279